createdAt,value
2023-05-10T00:01:22.757Z,0.15
2023-05-10T00:03:02.518Z,0.16
2023-05-10T00:04:42.302Z,0.17
2023-05-10T00:06:22.067Z,0.16
2023-05-10T00:08:01.827Z,0.15
2023-05-10T00:09:41.620Z,0.17
2023-05-10T00:11:21.381Z,0.15
2023-05-10T00:13:01.126Z,0.19
2023-05-10T00:14:40.907Z,0.19
2023-05-10T00:16:20.670Z,0.18
2023-05-10T00:18:00.453Z,0.17
2023-05-10T00:19:40.196Z,0.16
2023-05-10T00:21:19.973Z,0.18
2023-05-10T00:22:59.737Z,0.17
2023-05-10T00:24:39.506Z,0.16
2023-05-10T00:26:19.279Z,0.16
2023-05-10T00:27:59.034Z,0.16
2023-05-10T00:29:38.849Z,0.19
2023-05-10T00:31:18.572Z,0.18
2023-05-10T00:32:58.366Z,0.16
2023-05-10T00:34:38.119Z,0.19
2023-05-10T00:36:17.897Z,0.18
2023-05-10T00:37:57.643Z,0.17
2023-05-10T00:39:37.417Z,0.18
2023-05-10T00:41:17.190Z,0.16
2023-05-10T00:42:56.948Z,0.18
2023-05-10T00:44:36.717Z,0.19
2023-05-10T00:46:16.480Z,0.18
2023-05-10T00:47:56.250Z,0.16
2023-05-10T00:49:36.022Z,0.16
2023-05-10T00:51:15.803Z,0.19
2023-05-10T00:52:55.557Z,0.16
2023-05-10T00:54:35.323Z,0.15
2023-05-10T00:56:15.081Z,0.19
2023-05-10T00:57:54.855Z,0.17
2023-05-10T00:59:34.623Z,0.15
2023-05-10T01:01:14.387Z,0.16
2023-05-10T01:02:54.168Z,0.18
2023-05-10T01:04:33.926Z,0.19
2023-05-10T01:06:13.691Z,0.17
2023-05-10T01:07:53.470Z,0.17
2023-05-10T01:09:33.227Z,0.17
2023-05-10T01:11:12.995Z,0.19
2023-05-10T01:12:52.774Z,0.18
2023-05-10T01:14:32.525Z,0.17
2023-05-10T01:16:12.300Z,0.15
2023-05-10T01:17:52.085Z,0.2
2023-05-10T01:19:31.842Z,0.19
2023-05-10T01:21:11.616Z,0.17
2023-05-10T01:22:51.395Z,0.19
2023-05-10T01:24:31.141Z,0.16
2023-05-10T01:26:10.929Z,0.18
2023-05-10T01:27:50.681Z,0.17
2023-05-10T01:29:30.438Z,0.16
2023-05-10T01:31:10.214Z,0.16
2023-05-10T01:32:49.992Z,0.18
2023-05-10T01:34:29.739Z,0.18
2023-05-10T01:36:09.528Z,0.17
2023-05-10T01:37:49.287Z,0.16
2023-05-10T01:39:29.049Z,0.19
2023-05-10T01:41:08.810Z,0.16
2023-05-10T01:42:48.582Z,0.17
2023-05-10T01:44:28.343Z,0.16
2023-05-10T01:46:08.246Z,0.19
2023-05-10T01:47:47.882Z,0.19
2023-05-10T01:49:27.646Z,0.18
2023-05-10T01:51:07.430Z,0.19
2023-05-10T01:52:47.180Z,0.17
2023-05-10T01:54:26.966Z,0.21
2023-05-10T01:56:06.734Z,0.19
2023-05-10T01:57:46.479Z,0.21
2023-05-10T01:59:26.249Z,0.19
2023-05-10T02:01:06.007Z,0.21
2023-05-10T02:02:45.783Z,0.23
2023-05-10T02:04:25.557Z,0.24
2023-05-10T02:06:05.318Z,0.21
2023-05-10T02:07:45.096Z,0.23
2023-05-10T02:09:24.851Z,0.27
2023-05-10T02:11:04.667Z,0.3
2023-05-10T02:12:44.410Z,0.29
2023-05-10T02:14:24.157Z,0.35
2023-05-10T02:16:04.035Z,0.35
2023-05-10T02:17:43.704Z,0.43
2023-05-10T02:19:23.452Z,0.49
2023-05-10T02:21:03.226Z,0.57
2023-05-10T02:22:43.001Z,0.62
2023-05-10T02:24:22.755Z,0.74
2023-05-10T02:26:02.513Z,0.85
2023-05-10T02:27:42.304Z,1.05
2023-05-10T02:29:22.093Z,1.23
2023-05-10T02:31:01.842Z,1.52
2023-05-10T02:32:41.604Z,1.81
2023-05-10T02:34:21.362Z,2.26
2023-05-10T02:36:01.149Z,2.77
2023-05-10T02:37:40.910Z,3.42
2023-05-10T02:39:20.660Z,4.19
2023-05-10T02:41:00.444Z,5.22
2023-05-10T02:42:40.218Z,6.5
2023-05-10T02:44:19.977Z,8.05
2023-05-10T02:45:59.748Z,10.01
2023-05-10T02:47:39.564Z,12.45
2023-05-10T02:49:19.272Z,15.47
2023-05-10T02:50:59.041Z,19.14
2023-05-10T02:52:38.816Z,23.39
2023-05-10T02:54:18.584Z,26.06
2023-05-10T02:55:58.348Z,26.79
2023-05-10T02:57:38.111Z,26.83
2023-05-10T02:59:17.889Z,26.85
2023-05-10T03:00:57.663Z,26.88
2023-05-10T03:02:37.424Z,26.88
2023-05-10T03:04:17.193Z,26.89
2023-05-10T03:05:56.953Z,26.89
2023-05-10T03:07:36.718Z,26.9
2023-05-10T03:09:16.493Z,26.92
2023-05-10T03:10:56.256Z,26.92
2023-05-10T03:12:36.016Z,26.91
2023-05-10T03:14:15.791Z,26.93
2023-05-10T03:15:55.554Z,26.94
2023-05-10T03:17:35.322Z,26.95
2023-05-10T03:19:15.122Z,26.95
2023-05-10T03:20:54.864Z,26.96
2023-05-10T03:22:34.646Z,26.95
2023-05-10T03:24:14.387Z,26.99
2023-05-10T03:25:54.161Z,26.99
2023-05-10T03:27:33.950Z,26.99
2023-05-10T03:29:13.692Z,27.01
2023-05-10T03:30:53.464Z,27.02
2023-05-10T03:32:33.230Z,27.04
2023-05-10T03:34:13.006Z,27.04
2023-05-10T03:35:52.771Z,27.06
2023-05-10T03:37:32.534Z,27.06
2023-05-10T03:39:12.297Z,27.09
2023-05-10T03:40:52.074Z,27.09
2023-05-10T03:42:31.849Z,27.12
2023-05-10T03:44:11.614Z,27.12
2023-05-10T03:45:51.385Z,27.15
2023-05-10T03:47:31.153Z,27.13
2023-05-10T03:49:10.919Z,27.16
2023-05-10T03:50:50.693Z,27.19
2023-05-10T03:52:30.451Z,27.21
2023-05-10T03:54:10.226Z,27.22
2023-05-10T03:55:49.998Z,29.71
2023-05-10T03:57:29.762Z,35.38
2023-05-10T03:59:09.529Z,27.29
2023-05-10T04:00:49.305Z,27.29
2023-05-10T04:02:29.079Z,27.32
2023-05-10T04:04:08.838Z,27.34
2023-05-10T04:05:48.606Z,27.35
2023-05-10T04:07:28.391Z,27.36
2023-05-10T04:09:08.158Z,27.38
2023-05-10T04:10:47.932Z,27.4
2023-05-10T04:12:27.697Z,27.42
2023-05-10T04:14:07.479Z,27.39
2023-05-10T04:15:47.240Z,27.45
2023-05-10T04:17:27.008Z,27.47
2023-05-10T04:19:06.776Z,27.48
2023-05-10T04:20:46.606Z,27.5
2023-05-10T04:22:26.335Z,27.52
2023-05-10T04:24:06.086Z,27.56
2023-05-10T04:25:45.866Z,27.56
2023-05-10T04:27:25.627Z,27.6
2023-05-10T04:29:05.402Z,27.63
2023-05-10T04:30:45.164Z,27.65
2023-05-10T04:32:24.955Z,27.69
2023-05-10T04:34:04.705Z,27.72
2023-05-10T04:35:44.499Z,27.75
2023-05-10T04:37:24.249Z,27.79
2023-05-10T04:39:04.022Z,27.81
2023-05-10T04:40:43.800Z,27.85
2023-05-10T04:42:23.565Z,27.93
2023-05-10T04:44:03.325Z,27.98
2023-05-10T04:45:43.096Z,28.05
2023-05-10T04:47:22.879Z,28.09
2023-05-10T04:49:02.637Z,28.18
2023-05-10T04:50:42.455Z,28.25
2023-05-10T04:52:22.173Z,28.32
2023-05-10T04:54:01.937Z,28.4
2023-05-10T04:55:41.741Z,28.49
2023-05-10T04:57:21.518Z,73.19
2023-05-10T04:59:01.258Z,75.58
2023-05-10T05:00:41.025Z,74.33
2023-05-10T05:02:20.912Z,74.11
2023-05-10T05:04:00.577Z,75.11
2023-05-10T05:05:40.365Z,74.56
2023-05-10T05:07:20.117Z,77.43
2023-05-10T05:08:59.921Z,79.98
2023-05-10T05:10:39.655Z,80.91
2023-05-10T05:12:19.452Z,81.68
2023-05-10T05:13:59.269Z,82.12
2023-05-10T05:15:38.979Z,82.55
2023-05-10T05:17:18.736Z,82.88
2023-05-10T05:18:58.568Z,83.15
2023-05-10T05:20:38.274Z,83.37
2023-05-10T05:22:18.084Z,83.6
2023-05-10T05:23:57.816Z,83.74
2023-05-10T05:25:37.618Z,83.9
2023-05-10T05:27:17.353Z,84.03
2023-05-10T05:28:57.144Z,84.19
2023-05-10T05:30:36.902Z,84.31
2023-05-10T05:32:16.672Z,84.41
2023-05-10T05:33:56.434Z,84.49
2023-05-10T05:35:36.230Z,84.56
2023-05-10T05:37:15.986Z,84.63
2023-05-10T05:38:55.836Z,84.77
2023-05-10T05:40:35.524Z,84.83
2023-05-10T05:42:15.409Z,84.97
2023-05-10T05:43:55.152Z,85
2023-05-10T05:45:34.891Z,85.04
2023-05-10T05:47:14.651Z,85.12
2023-05-10T05:48:54.375Z,85.2
2023-05-10T05:50:34.176Z,85.3
2023-05-10T05:52:13.995Z,85.28
2023-05-10T05:53:53.696Z,85.31
2023-05-10T05:55:33.472Z,85.46
2023-05-10T05:57:13.358Z,85.5
2023-05-10T05:58:53.059Z,85.58
2023-05-10T06:00:32.799Z,85.66
2023-05-10T06:02:12.593Z,85.67
2023-05-10T06:03:52.321Z,85.75
2023-05-10T06:05:32.202Z,85.85
2023-05-10T06:07:11.892Z,85.84
2023-05-10T06:08:51.747Z,85.86
2023-05-10T06:10:31.384Z,85.85
2023-05-10T06:12:11.168Z,85.91
2023-05-10T06:13:50.968Z,85.92
2023-05-10T06:15:30.777Z,86.01
2023-05-10T06:17:10.561Z,86.11
2023-05-10T06:18:50.377Z,86.15
2023-05-10T06:20:30.055Z,86.27
2023-05-10T06:22:09.856Z,86.18
2023-05-10T06:23:49.616Z,86.17
2023-05-10T06:25:29.341Z,86.22
2023-05-10T06:27:09.254Z,86.29
2023-05-10T06:28:48.864Z,86.31
2023-05-10T06:30:28.693Z,86.2
2023-05-10T06:32:08.429Z,86.17
2023-05-10T06:33:48.208Z,86.35
2023-05-10T06:35:28.092Z,86.31
2023-05-10T06:37:07.730Z,86.25
2023-05-10T06:38:47.624Z,86.26
2023-05-10T06:40:27.285Z,86.32
2023-05-10T06:42:07.016Z,86.37
2023-05-10T06:43:46.844Z,86.33
2023-05-10T06:45:26.645Z,86.26
2023-05-10T06:47:06.329Z,86.17
2023-05-10T06:48:46.149Z,86.23
2023-05-10T06:50:25.889Z,86.39
2023-05-10T06:52:05.657Z,86.36
2023-05-10T06:53:45.515Z,86.28
2023-05-10T06:55:25.268Z,86.31
2023-05-10T06:57:05.060Z,86.22
2023-05-10T06:58:44.785Z,86.12
2023-05-10T07:00:24.765Z,86.1
2023-05-10T07:02:04.303Z,86.21
2023-05-10T07:03:44.052Z,86.15
2023-05-10T07:05:23.847Z,86.18
2023-05-10T07:07:03.671Z,86.08
2023-05-10T07:08:43.344Z,86.12
2023-05-10T07:10:23.308Z,86.14
2023-05-10T07:12:02.944Z,86.02
2023-05-10T07:13:42.716Z,86.02
2023-05-10T07:15:22.525Z,85.94
2023-05-10T07:17:02.357Z,85.92
2023-05-10T07:18:42.107Z,85.75
2023-05-10T07:20:21.760Z,85.83
2023-05-10T07:22:01.588Z,85.74
2023-05-10T07:23:41.328Z,85.68
2023-05-10T07:25:21.065Z,85.63
2023-05-10T07:27:00.849Z,85.48
2023-05-10T07:28:40.729Z,85.6
2023-05-10T07:30:20.373Z,85.78
2023-05-10T07:32:00.254Z,85.73
2023-05-10T07:33:40.081Z,85.76
2023-05-10T07:35:19.685Z,85.81
2023-05-10T07:36:59.468Z,85.73
2023-05-10T07:38:39.238Z,85.55
2023-05-10T07:40:18.986Z,85.55
2023-05-10T07:41:58.765Z,85.55
2023-05-10T07:43:38.560Z,85.48
2023-05-10T07:45:18.307Z,85.53
2023-05-10T07:46:58.127Z,85.67
2023-05-10T07:48:37.865Z,85.71
2023-05-10T07:50:17.616Z,85.74
2023-05-10T07:51:57.419Z,85.78
2023-05-10T07:53:37.152Z,85.6
2023-05-10T07:55:16.951Z,85.74
2023-05-10T07:56:56.732Z,85.76
2023-05-10T07:58:36.455Z,85.66
2023-05-10T08:00:16.232Z,85.62
2023-05-10T08:01:56.022Z,85.49
2023-05-10T08:03:35.867Z,85.32
2023-05-10T08:05:15.554Z,85.18
2023-05-10T08:06:55.434Z,85.57
2023-05-10T08:08:35.147Z,85.55
2023-05-10T08:10:14.946Z,85.86
2023-05-10T08:11:54.768Z,85.73
2023-05-10T08:13:34.428Z,85.93
2023-05-10T08:15:14.204Z,85.8
2023-05-10T08:16:53.971Z,85.65
2023-05-10T08:18:33.710Z,85.71
2023-05-10T08:20:13.610Z,86.39
2023-05-10T08:21:53.262Z,86.7
2023-05-10T08:23:33.029Z,86.63
2023-05-10T08:25:12.905Z,86.58
2023-05-10T08:26:52.570Z,86.05
2023-05-10T08:28:32.510Z,85.72
2023-05-10T08:30:12.221Z,85.55
2023-05-10T08:31:51.940Z,85.51
2023-05-10T08:33:31.897Z,85.55
2023-05-10T08:35:11.539Z,85.47
2023-05-10T08:36:51.298Z,85.29
2023-05-10T08:38:31.118Z,85.26
2023-05-10T08:40:10.841Z,85.32
2023-05-10T08:41:50.772Z,85.38
2023-05-10T08:43:30.451Z,85.49
2023-05-10T08:45:10.022Z,85.29
2023-05-10T08:46:49.889Z,85.06
2023-05-10T08:48:29.647Z,84.94
2023-05-10T08:50:09.348Z,85.05
2023-05-10T08:51:49.140Z,85.01
2023-05-10T08:53:29.012Z,84.86
2023-05-10T08:55:08.653Z,84.85
2023-05-10T08:56:48.440Z,84.72
2023-05-10T08:58:28.318Z,84.58
2023-05-10T09:00:08.059Z,84.42
2023-05-10T09:01:47.824Z,84.37
2023-05-10T09:03:27.573Z,84.74
2023-05-10T09:05:07.409Z,84.58
2023-05-10T09:06:47.059Z,84.43
2023-05-10T09:08:26.931Z,84.4
2023-05-10T09:10:06.615Z,84.47
2023-05-10T09:11:46.466Z,84.35
2023-05-10T09:13:26.155Z,84.37
2023-05-10T09:15:05.924Z,84.49
2023-05-10T09:16:45.676Z,84.32
2023-05-10T09:18:25.487Z,84.36
2023-05-10T09:20:05.219Z,84.03
2023-05-10T09:21:45.010Z,84.17
2023-05-10T09:23:24.774Z,83.96
2023-05-10T09:25:04.545Z,83.75
2023-05-10T09:26:44.301Z,83.94
2023-05-10T09:28:24.105Z,84.06
2023-05-10T09:30:03.858Z,84.17
2023-05-10T09:31:43.614Z,84.1
2023-05-10T09:33:23.394Z,84.23
2023-05-10T09:35:03.144Z,84.19
2023-05-10T09:36:42.931Z,84.19
2023-05-10T09:38:22.694Z,84.01
2023-05-10T09:40:02.470Z,83.94
2023-05-10T09:41:42.220Z,84
2023-05-10T09:43:22.017Z,84.06
2023-05-10T09:45:01.805Z,83.82
2023-05-10T09:46:41.553Z,83.88
2023-05-10T09:48:21.316Z,84
2023-05-10T09:50:01.161Z,83.96
2023-05-10T09:51:40.857Z,84.01
2023-05-10T09:53:20.642Z,84.21
2023-05-10T09:55:00.418Z,84.11
2023-05-10T09:56:40.191Z,84.05
2023-05-10T09:58:19.990Z,83.89
2023-05-10T09:59:59.705Z,83.67
2023-05-10T10:01:39.484Z,83.56
2023-05-10T10:03:19.298Z,83.8
2023-05-10T10:04:59.039Z,84.15
2023-05-10T10:06:38.787Z,83.9
2023-05-10T10:08:18.587Z,83.81
2023-05-10T10:09:58.350Z,83.85
2023-05-10T10:11:38.118Z,83.78
2023-05-10T10:13:17.987Z,83.83
2023-05-10T10:14:57.758Z,83.66
2023-05-10T10:16:37.453Z,83.35
2023-05-10T10:18:17.212Z,83.29
2023-05-10T10:19:56.992Z,83.59
2023-05-10T10:21:36.777Z,83.37
2023-05-10T10:23:16.542Z,83.52
2023-05-10T10:24:56.374Z,83.55
2023-05-10T10:26:36.041Z,83.45
2023-05-10T10:28:15.818Z,83.12
2023-05-10T10:29:55.608Z,83.24
2023-05-10T10:31:35.349Z,84.17
2023-05-10T10:33:15.168Z,83.8
2023-05-10T10:34:54.998Z,83.52
2023-05-10T10:36:34.804Z,83.49
2023-05-10T10:38:14.564Z,83.21
2023-05-10T10:39:54.306Z,83.05
2023-05-10T10:41:33.984Z,83.07
2023-05-10T10:43:13.766Z,82.88
2023-05-10T10:44:53.596Z,83.24
2023-05-10T10:46:33.423Z,83.51
2023-05-10T10:48:13.063Z,83.4
2023-05-10T10:49:52.918Z,83.24
2023-05-10T10:51:32.596Z,83.07
2023-05-10T10:53:12.382Z,82.79
2023-05-10T10:54:52.132Z,82.78
2023-05-10T10:56:31.906Z,82.96
2023-05-10T10:58:11.784Z,82.86
2023-05-10T10:59:51.453Z,82.62
2023-05-10T11:01:31.222Z,82.68
2023-05-10T11:03:11.070Z,82.51
2023-05-10T11:04:50.799Z,83.17
2023-05-10T11:06:30.521Z,83.38
2023-05-10T11:08:10.385Z,83.28
2023-05-10T11:09:50.069Z,83.02
2023-05-10T11:11:29.886Z,82.74
2023-05-10T11:13:09.636Z,82.81
2023-05-10T11:14:49.398Z,83.1
2023-05-10T11:16:29.230Z,83.12
2023-05-10T11:18:08.917Z,82.86
2023-05-10T11:19:48.698Z,82.81
2023-05-10T11:21:28.476Z,82.43
2023-05-10T11:23:08.236Z,82.45
2023-05-10T11:24:48.008Z,82.21
2023-05-10T11:26:27.766Z,82.13
2023-05-10T11:28:07.532Z,82.5
2023-05-10T11:29:47.318Z,82.94
2023-05-10T11:31:27.085Z,82.97
2023-05-10T11:33:06.852Z,82.81
2023-05-10T11:34:46.623Z,82.89
2023-05-10T11:36:26.417Z,82.98
2023-05-10T11:38:06.186Z,82.94
2023-05-10T11:39:45.946Z,82.81
2023-05-10T11:41:25.712Z,83.03
2023-05-10T11:43:05.484Z,83.03
2023-05-10T11:44:45.256Z,82.85
2023-05-10T11:46:25.017Z,82.97
2023-05-10T11:48:04.793Z,82.76
2023-05-10T11:49:44.553Z,82.74
2023-05-10T11:51:24.350Z,82.81
2023-05-10T11:53:04.101Z,82.84
2023-05-10T11:54:43.878Z,82.34
2023-05-10T11:56:23.639Z,82.65
2023-05-10T11:58:03.415Z,82.94
2023-05-10T11:59:43.193Z,82.91
2023-05-10T12:01:22.972Z,82.83
2023-05-10T12:03:02.739Z,82.91
2023-05-10T12:04:42.496Z,82.74
2023-05-10T12:06:22.262Z,82.92
2023-05-10T12:08:02.059Z,83.08
2023-05-10T12:09:41.799Z,83
2023-05-10T12:11:21.575Z,83.19
2023-05-10T12:13:01.336Z,83.19
2023-05-10T12:14:41.109Z,83.47
2023-05-10T12:16:20.877Z,83.53
2023-05-10T12:18:00.650Z,83.34
2023-05-10T12:19:40.443Z,83.09
2023-05-10T12:21:20.199Z,82.82
2023-05-10T12:22:59.982Z,82.8
2023-05-10T12:24:39.762Z,82.62
2023-05-10T12:26:19.542Z,82.5
2023-05-10T12:27:59.291Z,82.5
2023-05-10T12:29:39.064Z,82.42
2023-05-10T12:31:18.818Z,82.39
2023-05-10T12:32:58.590Z,82.51
2023-05-10T12:34:38.375Z,83.21
2023-05-10T12:36:18.142Z,82.83
2023-05-10T12:37:57.907Z,82.74
2023-05-10T12:39:37.666Z,82.82
2023-05-10T12:41:17.441Z,82.8
2023-05-10T12:42:57.249Z,82.67
2023-05-10T12:44:36.998Z,82.63
2023-05-10T12:46:16.758Z,82.87
2023-05-10T12:47:56.563Z,83
2023-05-10T12:49:36.427Z,82.95
2023-05-10T12:51:16.109Z,76.81
2023-05-10T12:54:35.832Z,83.53
2023-05-10T12:56:15.530Z,83.17
2023-05-10T12:57:55.141Z,83.18
2023-05-10T12:59:34.985Z,83.21
2023-05-10T13:01:14.829Z,83.17
2023-05-10T13:02:54.475Z,83.03
2023-05-10T13:04:34.383Z,82.97
2023-05-10T13:06:14.057Z,82.96
2023-05-10T13:07:53.777Z,82.96
2023-05-10T13:09:33.545Z,83
2023-05-10T13:11:13.365Z,82.96
2023-05-10T13:12:53.112Z,83.11
2023-05-10T13:14:32.845Z,82.87
2023-05-10T13:16:12.671Z,83.16
2023-05-10T13:17:52.462Z,82.91
2023-05-10T13:19:32.246Z,82.84
2023-05-10T13:21:11.978Z,82.55
2023-05-10T13:22:51.708Z,83.78
2023-05-10T13:24:31.500Z,83.67
2023-05-10T13:26:11.242Z,83.51
2023-05-10T13:27:51.023Z,83
2023-05-10T13:29:30.807Z,82.79
2023-05-10T13:31:10.582Z,82.47
2023-05-10T13:32:50.332Z,82.84
2023-05-10T13:34:30.086Z,83.01
2023-05-10T13:36:09.977Z,83.04
2023-05-10T13:37:49.726Z,82.84
2023-05-10T13:39:29.436Z,82.66
2023-05-10T13:41:09.347Z,82.55
2023-05-10T13:42:48.968Z,82.66
2023-05-10T13:44:28.789Z,82.84
2023-05-10T13:46:08.507Z,82.85
2023-05-10T13:47:48.348Z,82.74
2023-05-10T13:49:28.030Z,82.89
2023-05-10T13:51:07.801Z,82.87
2023-05-10T13:52:47.575Z,83.23
2023-05-10T13:54:27.340Z,83.05
2023-05-10T13:56:07.205Z,83.05
2023-05-10T13:57:46.957Z,83.05
2023-05-10T13:59:26.675Z,83.19
2023-05-10T14:01:06.437Z,83.25
2023-05-10T14:02:46.249Z,83.15
2023-05-10T14:04:25.970Z,83.07
2023-05-10T14:06:05.805Z,82.74
2023-05-10T14:07:45.511Z,82.62
2023-05-10T14:09:25.375Z,82.63
2023-05-10T14:11:05.065Z,82.67
2023-05-10T14:12:44.937Z,82.48
2023-05-10T14:14:24.614Z,82.46
2023-05-10T14:16:04.362Z,82.78
2023-05-10T14:17:44.162Z,83.05
2023-05-10T14:19:23.910Z,83.03
2023-05-10T14:21:03.715Z,83.04
2023-05-10T14:22:43.447Z,83.01
2023-05-10T14:24:23.312Z,83.01
2023-05-10T14:26:03.129Z,82.63
2023-05-10T14:27:42.772Z,82.35
2023-05-10T14:29:22.522Z,82.69
2023-05-10T14:31:02.323Z,82.56
2023-05-10T14:32:42.189Z,82.48
2023-05-10T14:34:21.868Z,82.66
2023-05-10T14:36:01.610Z,82.6
2023-05-10T14:37:41.399Z,82.47
2023-05-10T14:39:21.240Z,82.35
2023-05-10T14:41:00.929Z,82.16
2023-05-10T14:42:40.725Z,82.31
2023-05-10T14:44:20.460Z,82.41
2023-05-10T14:46:00.253Z,82.65
2023-05-10T14:47:40.059Z,82.76
2023-05-10T14:49:19.771Z,83.1
2023-05-10T14:50:59.544Z,83.13
2023-05-10T14:52:39.366Z,83.27
2023-05-10T14:54:19.096Z,83.33
2023-05-10T14:55:58.860Z,83.4
2023-05-10T14:57:38.764Z,83.59
2023-05-10T14:59:18.383Z,83.26
2023-05-10T15:00:58.182Z,82.98
2023-05-10T15:02:38.011Z,83.21
2023-05-10T15:04:17.754Z,83.1
2023-05-10T15:05:57.541Z,83.3
2023-05-10T15:07:37.241Z,83.26
2023-05-10T15:09:17.095Z,83.48
2023-05-10T15:10:56.796Z,83.43
2023-05-10T15:12:36.554Z,83.58
2023-05-10T15:14:16.349Z,83.64
2023-05-10T15:15:56.118Z,83.78
2023-05-10T15:17:35.934Z,83.61
2023-05-10T15:19:15.635Z,83.3
2023-05-10T15:20:55.527Z,83.41
2023-05-10T15:22:35.298Z,83.25
2023-05-10T15:24:15.074Z,83.26
2023-05-10T15:25:54.761Z,83.2
2023-05-10T15:27:34.556Z,83.28
2023-05-10T15:29:14.335Z,83.3
2023-05-10T15:30:54.178Z,83.33
2023-05-10T15:32:33.947Z,83.27
2023-05-10T15:34:13.690Z,83
2023-05-10T15:35:53.473Z,83.2
2023-05-10T15:37:33.132Z,83.06
2023-05-10T15:39:13.074Z,83.12
2023-05-10T15:40:52.649Z,83.13
2023-05-10T15:42:32.431Z,83.3
2023-05-10T15:44:12.198Z,83.07
2023-05-10T15:45:52.019Z,82.97
2023-05-10T15:47:31.746Z,82.95
2023-05-10T15:49:11.500Z,82.89
2023-05-10T15:50:51.410Z,82.9
2023-05-10T15:52:31.045Z,82.95
2023-05-10T15:54:10.943Z,82.71
2023-05-10T15:55:50.598Z,83.09
2023-05-10T15:57:30.519Z,83.12
2023-05-10T15:59:10.137Z,82.96
2023-05-10T16:00:49.887Z,82.74
2023-05-10T16:02:29.684Z,82.17
2023-05-10T16:04:09.456Z,83.24
2023-05-10T16:05:49.213Z,83.49
2023-05-10T16:07:29.034Z,83.46
2023-05-10T16:09:08.846Z,83.21
2023-05-10T16:10:48.538Z,83.12
2023-05-10T16:12:28.289Z,83.2
2023-05-10T16:14:08.072Z,83.24
2023-05-10T16:15:48.013Z,83.46
2023-05-10T16:17:27.619Z,83.43
2023-05-10T16:19:07.389Z,83.17
2023-05-10T16:20:47.153Z,83.45
2023-05-10T16:22:26.921Z,83.46
2023-05-10T16:24:06.682Z,79.51
2023-05-10T16:25:46.466Z,80.16
2023-05-10T16:27:26.222Z,83.26
2023-05-10T16:29:06.046Z,82.72
2023-05-10T16:30:45.819Z,80.37
2023-05-10T16:32:25.578Z,80.79
2023-05-10T16:34:05.345Z,81.4
2023-05-10T16:35:45.108Z,80.36
2023-05-10T16:37:24.871Z,80.22
2023-05-10T16:39:04.620Z,80.32
2023-05-10T16:40:44.459Z,80.64
2023-05-10T16:42:24.169Z,81.11
2023-05-10T16:44:03.989Z,82.07
2023-05-10T16:45:43.859Z,83.17
2023-05-10T16:47:23.527Z,82.98
2023-05-10T16:49:03.232Z,83.72
2023-05-10T16:50:43.067Z,81.68
2023-05-10T16:52:22.800Z,83.22
2023-05-10T16:54:02.562Z,83.08
2023-05-10T16:55:42.383Z,84.1
2023-05-10T16:57:22.128Z,83.74
2023-05-10T16:59:01.882Z,83.26
2023-05-10T17:00:41.647Z,82.14
2023-05-10T17:02:21.450Z,81.33
2023-05-10T17:04:01.201Z,82.83
2023-05-10T17:05:40.979Z,82.4
2023-05-10T17:07:20.803Z,82.16
2023-05-10T17:09:00.501Z,81.98
2023-05-10T17:10:40.374Z,82.26
2023-05-10T17:12:20.040Z,82.63
2023-05-10T17:13:59.817Z,82.38
2023-05-10T17:15:39.616Z,82.16
2023-05-10T17:17:19.349Z,82.18
2023-05-10T17:18:59.121Z,82.07
2023-05-10T17:20:38.911Z,82.02
2023-05-10T17:22:18.760Z,81.87
2023-05-10T17:23:58.568Z,81.28
2023-05-10T17:25:38.207Z,80.62
2023-05-10T17:27:17.971Z,80.19
2023-05-10T17:28:57.746Z,80.01
2023-05-10T17:30:37.506Z,79.94
2023-05-10T17:32:17.368Z,79.9
2023-05-10T17:33:57.046Z,79.9
2023-05-10T17:35:36.844Z,79.58
2023-05-10T17:37:16.614Z,79
2023-05-10T17:38:56.511Z,78.19
2023-05-10T17:40:36.238Z,77.47
2023-05-10T17:42:15.933Z,77.06
2023-05-10T17:43:55.817Z,76.81
2023-05-10T17:45:35.505Z,76.75
2023-05-10T17:47:15.303Z,76.58
2023-05-10T17:48:55.089Z,76.33
2023-05-10T17:50:34.785Z,76.01
2023-05-10T17:52:14.547Z,75.44
2023-05-10T17:53:54.332Z,74.73
2023-05-10T17:55:34.094Z,73.97
2023-05-10T17:57:13.833Z,73.08
2023-05-10T17:58:53.614Z,72.68
2023-05-10T18:00:33.392Z,72.21
2023-05-10T18:02:13.152Z,71.43
2023-05-10T18:03:52.907Z,70.53
2023-05-10T18:05:32.681Z,69.51
2023-05-10T18:07:12.497Z,67.39
2023-05-10T18:08:52.280Z,64.3
2023-05-10T18:10:32.052Z,58.94
2023-05-10T18:12:11.779Z,49.7
2023-05-10T18:13:51.552Z,38.5
2023-05-10T18:15:31.320Z,34.68
2023-05-10T18:17:11.093Z,34.3
2023-05-10T18:18:50.859Z,34.25
2023-05-10T18:20:30.728Z,34.25
2023-05-10T18:22:10.573Z,34.25
2023-05-10T18:23:50.313Z,32.56
2023-05-10T18:25:30.085Z,29.38
2023-05-10T18:27:09.856Z,27.99
2023-05-10T18:28:49.617Z,27.97
2023-05-10T18:30:29.283Z,27.93
2023-05-10T18:32:09.015Z,27.89
2023-05-10T18:33:48.763Z,27.88
2023-05-10T18:35:28.682Z,27.85
2023-05-10T18:37:08.323Z,27.81
2023-05-10T18:38:48.284Z,27.79
2023-05-10T18:40:27.823Z,27.76
2023-05-10T18:42:07.590Z,27.74
2023-05-10T18:43:47.376Z,27.7
2023-05-10T18:45:27.174Z,27.68
2023-05-10T18:47:06.973Z,37.8
2023-05-10T18:48:46.689Z,31.75
2023-05-10T18:50:26.492Z,27.61
2023-05-10T18:52:06.304Z,27.6
2023-05-10T18:53:45.974Z,27.56
2023-05-10T18:55:25.919Z,27.54
2023-05-10T18:57:05.685Z,27.49
2023-05-10T18:58:45.266Z,27.5
2023-05-10T19:00:25.018Z,27.47
2023-05-10T19:02:04.853Z,27.44
2023-05-10T19:03:44.574Z,27.4
2023-05-10T19:05:24.466Z,27.34
2023-05-10T19:07:04.097Z,27.28
2023-05-10T19:08:43.949Z,26.05
2023-05-10T19:10:23.661Z,22.44
2023-05-10T19:12:03.410Z,18.87
2023-05-10T19:13:43.322Z,15.81
2023-05-10T19:15:23.074Z,13.28
2023-05-10T19:17:02.846Z,11.19
2023-05-10T19:18:42.758Z,9.34
2023-05-10T19:20:23.150Z,7.74
2023-05-10T19:22:02.766Z,6.4
2023-05-10T19:23:41.865Z,5.32
2023-05-10T19:25:21.565Z,4.34
2023-05-10T19:27:02.017Z,3.6
2023-05-10T19:28:41.084Z,2.95
2023-05-10T19:30:20.886Z,2.46
2023-05-10T19:32:00.661Z,2.03
2023-05-10T19:33:40.400Z,1.7
2023-05-10T19:35:20.246Z,1.37
2023-05-10T19:37:00.085Z,1.16
2023-05-10T19:38:39.730Z,0.94
2023-05-10T19:40:19.494Z,0.8
2023-05-10T19:41:59.225Z,0.67
2023-05-10T19:43:39.020Z,0.57
2023-05-10T19:45:18.779Z,0.44
2023-05-10T19:46:58.544Z,0.39
2023-05-10T19:48:38.289Z,0.33
2023-05-10T19:50:18.157Z,0.34
2023-05-10T19:51:57.834Z,0.3
2023-05-10T19:53:37.658Z,0.24
2023-05-10T19:55:17.491Z,0.27
2023-05-10T19:56:57.302Z,0.23
2023-05-10T19:58:37.053Z,0.22
2023-05-10T20:00:16.711Z,0.19
2023-05-10T20:01:56.514Z,0.19
2023-05-10T20:03:36.401Z,0.19
2023-05-10T20:05:16.085Z,0.19
2023-05-10T20:06:55.897Z,0.21
2023-05-10T20:08:35.505Z,0.21
2023-05-10T20:10:15.427Z,0.17
2023-05-10T20:11:55.051Z,0.21
2023-05-10T20:13:34.803Z,0.19
2023-05-10T20:15:14.583Z,0.19
2023-05-10T20:16:54.371Z,0.21
2023-05-10T20:18:34.198Z,0.19
2023-05-10T20:20:13.883Z,0.19
2023-05-10T20:21:53.636Z,0.19
2023-05-10T20:23:33.502Z,0.17
2023-05-10T20:25:13.222Z,0.19
2023-05-10T20:26:52.945Z,0.2
2023-05-10T20:28:32.753Z,0.17
2023-05-10T20:30:12.509Z,0.18
2023-05-10T20:31:52.251Z,0.17
2023-05-10T20:33:32.216Z,0.17
2023-05-10T20:35:11.782Z,0.2
2023-05-10T20:36:51.549Z,0.18
2023-05-10T20:38:31.337Z,0.2
2023-05-10T20:40:11.080Z,0.17
2023-05-10T20:41:50.877Z,0.18
2023-05-10T20:43:30.661Z,0.18
2023-05-10T20:45:10.400Z,0.17
2023-05-10T20:46:50.145Z,0.19
2023-05-10T20:48:30.046Z,0.17
2023-05-10T20:50:09.740Z,0.18
2023-05-10T20:51:49.461Z,0.16
2023-05-10T20:53:29.230Z,0.17
2023-05-10T20:55:09.000Z,0.18
2023-05-10T20:56:48.765Z,0.17
2023-05-10T20:58:28.532Z,0.16
2023-05-10T21:00:08.302Z,0.18
2023-05-10T21:01:48.072Z,0.18
2023-05-10T21:03:27.840Z,0.19
2023-05-10T21:05:07.610Z,0.16
2023-05-10T21:06:47.367Z,0.19
2023-05-10T21:08:27.125Z,0.17
2023-05-10T21:10:06.891Z,0.17
2023-05-10T21:11:46.662Z,0.18
2023-05-10T21:13:26.525Z,0.16
2023-05-10T21:15:06.238Z,0.16
2023-05-10T21:16:45.994Z,0.16
2023-05-10T21:18:25.874Z,0.17
2023-05-10T21:20:05.579Z,0.17
2023-05-10T21:21:45.367Z,0.17
2023-05-10T21:23:25.049Z,0.19
2023-05-10T21:25:04.845Z,0.17
2023-05-10T21:26:44.623Z,0.16
2023-05-10T21:28:24.377Z,0.17
2023-05-10T21:30:04.116Z,0.19
2023-05-10T21:31:43.915Z,0.16
2023-05-10T21:33:23.653Z,0.19
2023-05-10T21:35:03.444Z,0.15
2023-05-10T21:36:43.210Z,0.16
2023-05-10T21:38:22.968Z,0.16
2023-05-10T21:40:02.985Z,0.17
2023-05-10T21:41:42.586Z,0.18